createdAt,value
2017-10-19T07:09:25.000Z,990.95
2017-10-19T07:10:06.000Z,990.95
2017-10-19T07:11:08.000Z,990.92
2017-10-19T07:12:08.000Z,990.94
2017-10-19T07:13:08.000Z,990.99
2017-10-19T07:14:08.000Z,990.93
2017-10-19T07:15:08.000Z,990.86
2017-10-19T07:16:06.000Z,990.91
2017-10-19T07:17:06.000Z,990.93
2017-10-19T07:18:07.000Z,990.92
2017-10-19T07:19:06.000Z,990.96
2017-10-19T07:20:07.000Z,991.04
2017-10-19T07:21:06.000Z,990.97
2017-10-19T07:22:08.000Z,990.95
2017-10-19T07:23:08.000Z,990.99
2017-10-19T07:24:08.000Z,990.96
2017-10-19T07:25:09.000Z,990.90
2017-10-19T07:26:08.000Z,990.96
2017-10-19T07:27:08.000Z,990.93
2017-10-19T07:28:08.000Z,990.97
2017-10-19T07:29:08.000Z,990.99
2017-10-19T07:30:09.000Z,991.02
2017-10-19T07:31:08.000Z,991.00
2017-10-19T07:32:08.000Z,990.89
2017-10-19T07:33:07.000Z,990.94
2017-10-19T07:34:08.000Z,991.01
2017-10-19T07:35:07.000Z,991.00
2017-10-19T07:36:07.000Z,991.04
2017-10-19T07:37:06.000Z,991.05
2017-10-19T07:38:07.000Z,990.98
2017-10-19T07:39:07.000Z,990.98
2017-10-19T07:40:07.000Z,990.98
2017-10-19T07:41:07.000Z,990.97
2017-10-19T07:42:07.000Z,990.99
2017-10-19T07:43:06.000Z,990.95
2017-10-19T07:44:09.000Z,990.90
2017-10-19T07:45:08.000Z,990.90
2017-10-19T07:46:08.000Z,990.96
2017-10-19T07:47:08.000Z,991.01
2017-10-19T07:48:08.000Z,991.01
2017-10-19T07:49:08.000Z,991.00
2017-10-19T07:50:08.000Z,990.98
2017-10-19T07:51:08.000Z,990.89
2017-10-19T07:52:10.000Z,990.92
2017-10-19T07:53:07.000Z,990.93
2017-10-19T07:54:08.000Z,990.96
2017-10-19T07:55:08.000Z,990.96
2017-10-19T07:56:08.000Z,990.91
2017-10-19T07:57:08.000Z,990.99
2017-10-19T07:58:08.000Z,990.99
2017-10-19T07:59:08.000Z,990.99
2017-10-19T08:00:08.000Z,990.93
2017-10-19T08:01:08.000Z,990.96
2017-10-19T08:02:08.000Z,990.93
2017-10-19T08:03:08.000Z,991.00
2017-10-19T08:04:08.000Z,990.96
2017-10-19T08:05:08.000Z,991.00
2017-10-19T08:06:08.000Z,990.99
2017-10-19T08:07:08.000Z,990.91
2017-10-19T08:08:08.000Z,990.93
2017-10-19T08:09:07.000Z,990.92
2017-10-19T08:10:07.000Z,990.94
2017-10-19T08:11:07.000Z,990.95
2017-10-19T08:12:07.000Z,990.89
2017-10-19T08:13:07.000Z,990.89
2017-10-19T08:14:07.000Z,990.99
2017-10-19T08:15:07.000Z,990.94
2017-10-19T08:16:07.000Z,990.93
2017-10-19T08:17:07.000Z,990.93
2017-10-19T08:18:07.000Z,990.91
2017-10-19T08:19:07.000Z,990.92
2017-10-19T08:20:09.000Z,990.93
2017-10-19T08:21:08.000Z,990.86
2017-10-19T08:22:09.000Z,990.87
2017-10-19T08:23:09.000Z,990.90
2017-10-19T08:24:08.000Z,990.83
2017-10-19T08:25:08.000Z,990.93
2017-10-19T08:26:08.000Z,990.84
2017-10-19T08:27:08.000Z,990.81
2017-10-19T08:28:09.000Z,990.76
2017-10-19T08:29:08.000Z,990.81
2017-10-19T08:30:07.000Z,990.82
2017-10-19T08:31:07.000Z,990.77
2017-10-19T08:32:07.000Z,990.77
2017-10-19T08:33:07.000Z,990.85
2017-10-19T08:34:07.000Z,990.81
2017-10-19T08:35:07.000Z,990.74
2017-10-19T08:36:08.000Z,990.79
2017-10-19T08:37:08.000Z,990.85
2017-10-19T08:38:08.000Z,990.74
2017-10-19T08:39:08.000Z,990.77
2017-10-19T08:40:08.000Z,990.80
2017-10-19T08:41:08.000Z,990.81
2017-10-19T08:42:09.000Z,990.78
2017-10-19T08:43:09.000Z,990.74
2017-10-19T08:44:08.000Z,990.81
2017-10-19T08:45:09.000Z,990.73
2017-10-19T08:46:08.000Z,990.76
2017-10-19T08:47:09.000Z,990.73
2017-10-19T08:48:09.000Z,990.81
2017-10-19T08:49:07.000Z,990.84
2017-10-19T08:50:07.000Z,990.84
2017-10-19T08:51:07.000Z,990.84
2017-10-19T08:52:07.000Z,990.80
2017-10-19T08:53:07.000Z,990.82
2017-10-19T08:54:07.000Z,990.82
2017-10-19T08:55:07.000Z,990.82
2017-10-19T08:56:08.000Z,990.81
2017-10-19T08:57:08.000Z,990.77
2017-10-19T08:58:08.000Z,990.86
2017-10-19T08:59:09.000Z,990.88
2017-10-19T09:00:08.000Z,990.89
2017-10-19T09:01:09.000Z,990.83
2017-10-19T09:02:08.000Z,990.91
2017-10-19T09:03:08.000Z,990.84
2017-10-19T09:04:09.000Z,990.89
2017-10-19T09:05:07.000Z,990.85
2017-10-19T09:06:07.000Z,990.80
2017-10-19T09:07:07.000Z,990.84
2017-10-19T09:08:07.000Z,990.86
2017-10-19T09:09:07.000Z,990.90
2017-10-19T09:10:07.000Z,990.88
2017-10-19T09:11:07.000Z,990.89
2017-10-19T09:12:08.000Z,990.82
2017-10-19T09:13:08.000Z,990.86
2017-10-19T09:14:09.000Z,990.85
2017-10-19T09:15:08.000Z,990.92
2017-10-19T09:16:08.000Z,990.78
2017-10-19T09:17:08.000Z,990.85
2017-10-19T09:18:09.000Z,990.93
2017-10-19T09:19:09.000Z,990.86
2017-10-19T09:20:08.000Z,990.85
2017-10-19T09:21:07.000Z,990.81
2017-10-19T09:22:07.000Z,990.81
2017-10-19T09:23:07.000Z,990.82
2017-10-19T09:24:07.000Z,990.87
2017-10-19T09:25:07.000Z,990.88
2017-10-19T09:26:07.000Z,990.77
2017-10-19T09:27:07.000Z,990.81
2017-10-19T09:28:07.000Z,990.90
2017-10-19T09:29:07.000Z,990.82
2017-10-19T09:30:07.000Z,990.88
2017-10-19T09:31:08.000Z,990.82
2017-10-19T09:32:09.000Z,990.82
2017-10-19T09:33:09.000Z,990.78
2017-10-19T09:34:09.000Z,990.80
2017-10-19T09:35:09.000Z,990.76
2017-10-19T09:36:09.000Z,990.78
2017-10-19T09:37:09.000Z,990.75
2017-10-19T09:38:09.000Z,990.76
2017-10-19T09:39:07.000Z,990.81
2017-10-19T09:40:07.000Z,990.74
2017-10-19T09:41:07.000Z,990.73
2017-10-19T09:42:07.000Z,990.67
2017-10-19T09:43:07.000Z,990.75
2017-10-19T09:44:07.000Z,990.70
2017-10-19T09:45:07.000Z,990.72
2017-10-19T09:46:07.000Z,990.69
2017-10-19T09:47:07.000Z,990.74
2017-10-19T09:48:07.000Z,990.75
2017-10-19T09:49:07.000Z,990.73
2017-10-19T09:50:09.000Z,990.67
2017-10-19T09:51:08.000Z,990.84
2017-10-19T09:52:08.000Z,990.79
2017-10-19T09:53:09.000Z,990.74
2017-10-19T09:54:09.000Z,990.77
2017-10-19T09:55:08.000Z,990.68
2017-10-19T09:56:09.000Z,990.75
2017-10-19T09:57:09.000Z,990.71
2017-10-19T09:58:09.000Z,990.76
2017-10-19T09:59:09.000Z,990.68
2017-10-19T10:00:07.000Z,990.67
2017-10-19T10:01:09.000Z,990.63
2017-10-19T10:02:07.000Z,990.63
2017-10-19T10:03:10.000Z,990.63
2017-10-19T10:04:07.000Z,990.59
2017-10-19T10:05:07.000Z,990.55
2017-10-19T10:06:07.000Z,990.54
2017-10-19T10:07:07.000Z,990.55
2017-10-19T10:08:07.000Z,990.51
2017-10-19T10:09:07.000Z,990.49
2017-10-19T10:10:09.000Z,990.54
2017-10-19T10:11:09.000Z,990.54
2017-10-19T10:12:09.000Z,990.46
2017-10-19T10:13:09.000Z,990.49
2017-10-19T10:14:09.000Z,990.51
2017-10-19T10:15:09.000Z,990.41
2017-10-19T10:16:09.000Z,990.48
2017-10-19T10:17:07.000Z,990.46
2017-10-19T10:18:07.000Z,990.41
2017-10-19T10:19:07.000Z,990.46
2017-10-19T10:20:07.000Z,990.45
2017-10-19T10:21:07.000Z,990.41
2017-10-19T10:22:07.000Z,990.40
2017-10-19T10:23:07.000Z,990.30
2017-10-19T10:24:09.000Z,990.31
2017-10-19T10:25:09.000Z,990.31
2017-10-19T10:26:09.000Z,990.28
2017-10-19T10:27:09.000Z,990.32
2017-10-19T10:28:09.000Z,990.20
2017-10-19T10:29:09.000Z,990.25
2017-10-19T10:30:09.000Z,990.23
2017-10-19T10:31:09.000Z,990.26
2017-10-19T10:32:09.000Z,990.18
2017-10-19T10:33:07.000Z,990.23
2017-10-19T10:34:07.000Z,990.20
2017-10-19T10:35:07.000Z,990.16
2017-10-19T10:36:07.000Z,990.13
2017-10-19T10:37:07.000Z,990.12
2017-10-19T10:38:07.000Z,990.12
2017-10-19T10:39:07.000Z,990.13
2017-10-19T10:40:07.000Z,990.10
2017-10-19T10:41:07.000Z,990.12
2017-10-19T10:42:07.000Z,990.13
2017-10-19T10:43:09.000Z,990.06
2017-10-19T10:44:09.000Z,990.09
2017-10-19T10:45:09.000Z,990.11
2017-10-19T10:46:09.000Z,990.12
2017-10-19T10:47:09.000Z,990.20
2017-10-19T10:48:09.000Z,990.05
2017-10-19T10:49:09.000Z,990.15
2017-10-19T10:50:09.000Z,990.08
2017-10-19T10:51:09.000Z,990.10
2017-10-19T10:52:09.000Z,990.11
2017-10-19T10:53:07.000Z,990.03
2017-10-19T10:54:07.000Z,990.08
2017-10-19T10:55:07.000Z,990.08
2017-10-19T10:56:07.000Z,990.04
2017-10-19T10:57:07.000Z,990.05
2017-10-19T10:58:07.000Z,990.11
2017-10-19T10:59:09.000Z,990.12
2017-10-19T11:00:09.000Z,990.07
2017-10-19T11:01:09.000Z,990.12
2017-10-19T11:02:09.000Z,990.05
2017-10-19T11:03:09.000Z,990.14
2017-10-19T11:04:09.000Z,990.08
2017-10-19T11:05:09.000Z,990.05
2017-10-19T11:06:09.000Z,990.13
2017-10-19T11:07:09.000Z,989.98
2017-10-19T11:08:09.000Z,989.95
2017-10-19T11:09:09.000Z,989.97
2017-10-19T11:10:09.000Z,989.99
2017-10-19T11:11:07.000Z,989.94
2017-10-19T11:12:07.000Z,989.96
2017-10-19T11:13:07.000Z,989.87
2017-10-19T11:14:07.000Z,990.00
2017-10-19T11:15:07.000Z,989.95
2017-10-19T11:16:07.000Z,989.91
2017-10-19T11:17:09.000Z,989.91
2017-10-19T11:18:09.000Z,989.89
2017-10-19T11:19:09.000Z,989.83
2017-10-19T11:20:09.000Z,989.90
2017-10-19T11:21:09.000Z,989.83
2017-10-19T11:22:09.000Z,989.89
2017-10-19T11:23:09.000Z,989.85
2017-10-19T11:24:09.000Z,989.77
2017-10-19T11:25:09.000Z,989.79
2017-10-19T11:26:09.000Z,989.81
2017-10-19T11:27:09.000Z,989.76
2017-10-19T11:28:07.000Z,989.73
2017-10-19T11:29:07.000Z,989.81
2017-10-19T11:30:07.000Z,989.71
2017-10-19T11:31:07.000Z,989.74
2017-10-19T11:32:07.000Z,989.71
2017-10-19T11:33:07.000Z,989.77
2017-10-19T11:34:07.000Z,989.71
2017-10-19T11:35:07.000Z,989.78
2017-10-19T11:36:07.000Z,989.65
2017-10-19T11:37:09.000Z,989.71
2017-10-19T11:38:09.000Z,989.69
2017-10-19T11:39:09.000Z,989.73
2017-10-19T11:40:09.000Z,989.75
2017-10-19T11:41:09.000Z,989.70
2017-10-19T11:42:09.000Z,989.62
2017-10-19T11:43:09.000Z,989.61
2017-10-19T11:44:09.000Z,989.65
2017-10-19T11:45:07.000Z,989.61
2017-10-19T11:46:07.000Z,989.59
2017-10-19T11:47:07.000Z,989.54
2017-10-19T11:48:07.000Z,989.49
2017-10-19T11:49:07.000Z,989.57
2017-10-19T11:50:07.000Z,989.56
2017-10-19T11:51:08.000Z,989.55
2017-10-19T11:52:07.000Z,989.55
2017-10-19T11:53:07.000Z,989.55
2017-10-19T11:54:09.000Z,989.51
2017-10-19T11:55:09.000Z,989.54
2017-10-19T11:56:09.000Z,989.53
2017-10-19T11:57:09.000Z,989.46
2017-10-19T11:58:09.000Z,989.43
2017-10-19T11:59:09.000Z,989.39
2017-10-19T12:00:07.000Z,989.37
2017-10-19T12:01:09.000Z,989.31
2017-10-19T12:02:07.000Z,989.35
2017-10-19T12:03:07.000Z,989.35
2017-10-19T12:04:07.000Z,989.39
2017-10-19T12:05:08.000Z,989.33
2017-10-19T12:06:08.000Z,989.31
2017-10-19T12:07:07.000Z,989.32
2017-10-19T12:08:08.000Z,989.26
2017-10-19T12:09:07.000Z,989.24
2017-10-19T12:10:08.000Z,989.21
2017-10-19T12:11:07.000Z,989.13
2017-10-19T12:12:09.000Z,989.15
2017-10-19T12:13:09.000Z,989.24
2017-10-19T12:14:09.000Z,989.22
2017-10-19T12:15:09.000Z,989.15
2017-10-19T12:16:09.000Z,989.21
2017-10-19T12:17:09.000Z,989.14
2017-10-19T12:18:09.000Z,989.13
2017-10-19T12:19:09.000Z,989.08
2017-10-19T12:20:10.000Z,989.08
2017-10-19T12:21:07.000Z,989.16
2017-10-19T12:22:09.000Z,989.15
2017-10-19T12:23:10.000Z,989.13
2017-10-19T12:24:08.000Z,989.11
2017-10-19T12:25:09.000Z,989.19
2017-10-19T12:26:09.000Z,989.13
2017-10-19T12:27:09.000Z,989.16
2017-10-19T12:28:09.000Z,989.12
2017-10-19T12:29:09.000Z,989.09
2017-10-19T12:30:09.000Z,989.06
2017-10-19T12:31:10.000Z,989.13
2017-10-19T12:32:08.000Z,989.08
2017-10-19T12:33:08.000Z,989.05
2017-10-19T12:34:09.000Z,989.05
2017-10-19T12:35:09.000Z,988.99
2017-10-19T12:36:09.000Z,988.99
2017-10-19T12:37:09.000Z,988.98
2017-10-19T12:38:09.000Z,989.08
2017-10-19T12:39:09.000Z,988.98
2017-10-19T12:40:08.000Z,988.99
2017-10-19T12:41:08.000Z,988.97
2017-10-19T12:42:08.000Z,988.90
2017-10-19T12:43:08.000Z,988.93
2017-10-19T12:44:08.000Z,988.98
2017-10-19T12:45:10.000Z,988.95
2017-10-19T12:46:08.000Z,988.85
2017-10-19T12:47:08.000Z,988.93
2017-10-19T12:48:09.000Z,988.89
2017-10-19T12:49:09.000Z,988.94
2017-10-19T12:50:09.000Z,988.97
2017-10-19T12:51:09.000Z,988.92
2017-10-19T12:52:09.000Z,988.87
2017-10-19T12:53:09.000Z,988.93
2017-10-19T12:54:09.000Z,988.79
2017-10-19T12:55:09.000Z,988.92
2017-10-19T12:56:09.000Z,988.90
2017-10-19T12:57:08.000Z,988.90
2017-10-19T12:58:08.000Z,988.86
2017-10-19T12:59:08.000Z,988.82
2017-10-19T13:00:08.000Z,988.83
2017-10-19T13:01:10.000Z,988.76
2017-10-19T13:03:41.000Z,988.76
2017-10-19T13:03:42.000Z,988.81
2017-10-19T13:03:43.000Z,988.77
2017-10-19T13:04:08.000Z,988.76
2017-10-19T13:07:04.000Z,988.77
2017-10-19T13:07:05.000Z,988.76
2017-10-19T13:07:08.000Z,988.76
2017-10-19T13:08:14.000Z,988.74
2017-10-19T13:09:08.000Z,988.78
2017-10-19T13:10:09.000Z,988.73
